sensor_id;sensor_type;location;lat;lon;timestamp;temperature;humidity
2202;DHT22;1107;48.654;9.250;2024-03-23T00:54:20;10.00;99.90
2202;DHT22;1107;48.654;9.250;2024-03-23T00:56:47;9.90;99.90
2202;DHT22;1107;48.654;9.250;2024-03-23T00:59:13;9.90;99.90
2202;DHT22;1107;48.654;9.250;2024-03-23T01:01:40;9.90;99.90
2202;DHT22;1107;48.654;9.250;2024-03-23T01:04:06;9.90;99.90
2202;DHT22;1107;48.654;9.250;2024-03-23T01:06:32;10.00;99.90
2202;DHT22;1107;48.654;9.250;2024-03-23T01:08:58;10.10;99.90
2202;DHT22;1107;48.654;9.250;2024-03-23T01:11:26;10.10;99.90
2202;DHT22;1107;48.654;9.250;2024-03-23T01:13:53;10.20;99.90
2202;DHT22;1107;48.654;9.250;2024-03-23T01:16:20;10.20;99.90
2202;DHT22;1107;48.654;9.250;2024-03-23T01:18:46;10.10;99.90
2202;DHT22;1107;48.654;9.250;2024-03-23T01:21:13;10.00;99.90
2202;DHT22;1107;48.654;9.250;2024-03-23T01:23:39;10.00;99.90
2202;DHT22;1107;48.654;9.250;2024-03-23T01:26:06;10.00;99.90
2202;DHT22;1107;48.654;9.250;2024-03-23T01:28:33;10.00;99.90
2202;DHT22;1107;48.654;9.250;2024-03-23T01:30:59;10.00;99.90
2202;DHT22;1107;48.654;9.250;2024-03-23T01:33:25;10.00;99.90
2202;DHT22;1107;48.654;9.250;2024-03-23T01:35:52;10.00;99.90
2202;DHT22;1107;48.654;9.250;2024-03-23T01:38:18;10.00;99.90
2202;DHT22;1107;48.654;9.250;2024-03-23T01:40:44;10.00;99.90
2202;DHT22;1107;48.654;9.250;2024-03-23T01:43:10;10.20;99.90
2202;DHT22;1107;48.654;9.250;2024-03-23T01:45:38;10.60;99.90
2202;DHT22;1107;48.654;9.250;2024-03-23T01:48:04;10.90;99.90
2202;DHT22;1107;48.654;9.250;2024-03-23T01:50:31;11.30;99.90
2202;DHT22;1107;48.654;9.250;2024-03-23T01:52:59;11.40;99.90
2202;DHT22;1107;48.654;9.250;2024-03-23T01:55:26;11.50;99.90
2202;DHT22;1107;48.654;9.250;2024-03-23T01:57:52;11.60;99.90
2202;DHT22;1107;48.654;9.250;2024-03-23T02:00:19;11.60;99.90
2202;DHT22;1107;48.654;9.250;2024-03-23T02:02:46;11.70;99.90
2202;DHT22;1107;48.654;9.250;2024-03-23T02:05:13;11.70;99.90
2202;DHT22;1107;48.654;9.250;2024-03-23T02:07:39;11.70;99.90
2202;DHT22;1107;48.654;9.250;2024-03-23T02:10:06;11.70;99.90
2202;DHT22;1107;48.654;9.250;2024-03-23T02:12:32;11.70;99.90
2202;DHT22;1107;48.654;9.250;2024-03-23T02:14:59;11.80;99.90
2202;DHT22;1107;48.654;9.250;2024-03-23T02:17:24;11.80;99.90
2202;DHT22;1107;48.654;9.250;2024-03-23T02:19:52;11.80;99.90
2202;DHT22;1107;48.654;9.250;2024-03-23T02:22:18;11.90;99.90
2202;DHT22;1107;48.654;9.250;2024-03-23T02:24:46;11.90;99.90
2202;DHT22;1107;48.654;9.250;2024-03-23T02:27:12;11.90;99.90
2202;DHT22;1107;48.654;9.250;2024-03-23T02:29:39;11.90;99.90
2202;DHT22;1107;48.654;9.250;2024-03-23T02:32:05;11.90;99.90
2202;DHT22;1107;48.654;9.250;2024-03-23T02:34:31;12.00;99.90
2202;DHT22;1107;48.654;9.250;2024-03-23T02:36:57;12.00;99.90
2202;DHT22;1107;48.654;9.250;2024-03-23T02:39:24;12.00;99.90
2202;DHT22;1107;48.654;9.250;2024-03-23T02:41:51;12.00;99.90
2202;DHT22;1107;48.654;9.250;2024-03-23T02:44:18;12.00;99.90
2202;DHT22;1107;48.654;9.250;2024-03-23T02:46:43;12.00;99.90
2202;DHT22;1107;48.654;9.250;2024-03-23T02:49:10;12.00;99.90
2202;DHT22;1107;48.654;9.250;2024-03-23T02:51:36;12.10;99.90
2202;DHT22;1107;48.654;9.250;2024-03-23T02:54:02;12.00;99.90
2202;DHT22;1107;48.654;9.250;2024-03-23T02:56:28;12.00;99.90
2202;DHT22;1107;48.654;9.250;2024-03-23T02:58:56;12.10;99.90
2202;DHT22;1107;48.654;9.250;2024-03-23T03:01:22;12.10;99.90
2202;DHT22;1107;48.654;9.250;2024-03-23T03:03:49;12.10;99.90
2202;DHT22;1107;48.654;9.250;2024-03-23T03:06:22;12.20;99.90
2202;DHT22;1107;48.654;9.250;2024-03-23T03:08:49;12.20;99.90
2202;DHT22;1107;48.654;9.250;2024-03-23T03:11:14;12.20;99.90
2202;DHT22;1107;48.654;9.250;2024-03-23T03:13:41;12.30;99.90
2202;DHT22;1107;48.654;9.250;2024-03-23T03:16:09;12.30;99.90
2202;DHT22;1107;48.654;9.250;2024-03-23T03:18:36;12.30;99.90
2202;DHT22;1107;48.654;9.250;2024-03-23T03:21:02;12.40;99.90
2202;DHT22;1107;48.654;9.250;2024-03-23T03:23:30;12.30;99.90
2202;DHT22;1107;48.654;9.250;2024-03-23T03:25:56;12.30;99.90
2202;DHT22;1107;48.654;9.250;2024-03-23T03:28:23;12.30;99.90
2202;DHT22;1107;48.654;9.250;2024-03-23T03:30:49;12.30;99.90
2202;DHT22;1107;48.654;9.250;2024-03-23T03:33:17;12.30;99.90
2202;DHT22;1107;48.654;9.250;2024-03-23T03:35:43;12.30;99.90
2202;DHT22;1107;48.654;9.250;2024-03-23T03:38:11;12.30;99.90
2202;DHT22;1107;48.654;9.250;2024-03-23T03:40:36;12.20;99.90
2202;DHT22;1107;48.654;9.250;2024-03-23T03:43:03;12.20;99.90
2202;DHT22;1107;48.654;9.250;2024-03-23T03:45:29;12.20;99.90
2202;DHT22;1107;48.654;9.250;2024-03-23T03:47:56;12.20;99.90
2202;DHT22;1107;48.654;9.250;2024-03-23T03:50:23;12.10;99.90
2202;DHT22;1107;48.654;9.250;2024-03-23T03:52:49;12.10;99.90
2202;DHT22;1107;48.654;9.250;2024-03-23T03:55:15;12.10;99.90
2202;DHT22;1107;48.654;9.250;2024-03-23T03:57:42;12.10;99.90
2202;DHT22;1107;48.654;9.250;2024-03-23T04:00:08;12.00;99.90
2202;DHT22;1107;48.654;9.250;2024-03-23T04:02:36;11.90;99.90
2202;DHT22;1107;48.654;9.250;2024-03-23T04:05:02;11.90;99.90
2202;DHT22;1107;48.654;9.250;2024-03-23T04:07:30;11.80;99.90
2202;DHT22;1107;48.654;9.250;2024-03-23T04:09:56;11.70;99.90
2202;DHT22;1107;48.654;9.250;2024-03-23T04:12:23;11.70;99.90
2202;DHT22;1107;48.654;9.250;2024-03-23T04:14:48;11.70;99.90
2202;DHT22;1107;48.654;9.250;2024-03-23T04:17:15;11.60;99.90
2202;DHT22;1107;48.654;9.250;2024-03-23T04:19:41;11.50;99.90
2202;DHT22;1107;48.654;9.250;2024-03-23T04:22:08;11.50;99.90
2202;DHT22;1107;48.654;9.250;2024-03-23T04:24:35;11.50;99.90
2202;DHT22;1107;48.654;9.250;2024-03-23T04:27:02;11.50;99.90
2202;DHT22;1107;48.654;9.250;2024-03-23T04:29:29;11.40;99.90
2202;DHT22;1107;48.654;9.250;2024-03-23T04:31:56;11.40;99.90
2202;DHT22;1107;48.654;9.250;2024-03-23T04:34:21;11.40;99.90
2202;DHT22;1107;48.654;9.250;2024-03-23T04:36:48;11.40;99.90
2202;DHT22;1107;48.654;9.250;2024-03-23T04:39:14;11.30;99.90
2202;DHT22;1107;48.654;9.250;2024-03-23T04:41:42;11.30;99.90
2202;DHT22;1107;48.654;9.250;2024-03-23T04:44:09;11.20;99.90
2202;DHT22;1107;48.654;9.250;2024-03-23T04:46:36;11.20;99.90
2202;DHT22;1107;48.654;9.250;2024-03-23T04:49:02;11.20;99.90
2202;DHT22;1107;48.654;9.250;2024-03-23T04:51:34;11.20;99.90
2202;DHT22;1107;48.654;9.250;2024-03-23T04:54:01;11.10;99.90
2202;DHT22;1107;48.654;9.250;2024-03-23T04:56:28;11.20;99.90
2202;DHT22;1107;48.654;9.250;2024-03-23T04:58:56;11.30;99.90
2202;DHT22;1107;48.654;9.250;2024-03-23T05:01:26;11.30;99.90
2202;DHT22;1107;48.654;9.250;2024-03-23T05:03:53;11.30;99.90
2202;DHT22;1107;48.654;9.250;2024-03-23T05:06:18;11.40;99.90
2202;DHT22;1107;48.654;9.250;2024-03-23T05:08:45;11.40;99.90
2202;DHT22;1107;48.654;9.250;2024-03-23T05:11:11;11.20;99.90
2202;DHT22;1107;48.654;9.250;2024-03-23T05:13:38;10.90;99.90
2202;DHT22;1107;48.654;9.250;2024-03-23T05:16:05;10.80;99.90
2202;DHT22;1107;48.654;9.250;2024-03-23T05:18:32;10.70;99.90
2202;DHT22;1107;48.654;9.250;2024-03-23T05:20:58;10.60;99.90
2202;DHT22;1107;48.654;9.250;2024-03-23T05:23:25;10.60;99.90
2202;DHT22;1107;48.654;9.250;2024-03-23T05:25:51;10.50;99.90
2202;DHT22;1107;48.654;9.250;2024-03-23T05:28:18;10.40;99.90
2202;DHT22;1107;48.654;9.250;2024-03-23T05:30:49;10.40;99.90
2202;DHT22;1107;48.654;9.250;2024-03-23T05:33:17;10.40;99.90
2202;DHT22;1107;48.654;9.250;2024-03-23T05:35:43;10.40;99.90
2202;DHT22;1107;48.654;9.250;2024-03-23T05:38:10;10.40;99.90
2202;DHT22;1107;48.654;9.250;2024-03-23T05:40:35;10.40;99.90
2202;DHT22;1107;48.654;9.250;2024-03-23T05:43:05;10.40;99.90
2202;DHT22;1107;48.654;9.250;2024-03-23T05:45:31;10.30;99.90
2202;DHT22;1107;48.654;9.250;2024-03-23T05:47:57;10.30;99.90
2202;DHT22;1107;48.654;9.250;2024-03-23T05:50:25;10.20;99.90
2202;DHT22;1107;48.654;9.250;2024-03-23T05:52:51;10.20;99.90
2202;DHT22;1107;48.654;9.250;2024-03-23T05:55:17;10.10;99.90
2202;DHT22;1107;48.654;9.250;2024-03-23T05:57:44;10.00;99.90
2202;DHT22;1107;48.654;9.250;2024-03-23T06:00:10;10.00;99.90
2202;DHT22;1107;48.654;9.250;2024-03-23T06:02:41;9.90;99.90
2202;DHT22;1107;48.654;9.250;2024-03-23T06:05:07;9.90;99.90
2202;DHT22;1107;48.654;9.250;2024-03-23T06:07:35;9.90;99.90
2202;DHT22;1107;48.654;9.250;2024-03-23T06:10:01;9.90;99.90
2202;DHT22;1107;48.654;9.250;2024-03-23T06:12:28;9.90;99.90
2202;DHT22;1107;48.654;9.250;2024-03-23T06:14:54;9.90;99.90
2202;DHT22;1107;48.654;9.250;2024-03-23T06:17:20;9.90;99.90
2202;DHT22;1107;48.654;9.250;2024-03-23T06:19:46;9.90;99.90
2202;DHT22;1107;48.654;9.250;2024-03-23T06:22:13;9.80;99.90
2202;DHT22;1107;48.654;9.250;2024-03-23T06:24:40;9.60;99.90
2202;DHT22;1107;48.654;9.250;2024-03-23T06:27:06;9.60;99.90
2202;DHT22;1107;48.654;9.250;2024-03-23T06:29:32;9.50;99.90
2202;DHT22;1107;48.654;9.250;2024-03-23T06:31:59;9.50;99.90
2202;DHT22;1107;48.654;9.250;2024-03-23T06:34:25;9.50;99.90
2202;DHT22;1107;48.654;9.250;2024-03-23T06:36:52;9.40;99.90
2202;DHT22;1107;48.654;9.250;2024-03-23T06:39:18;9.40;99.90
2202;DHT22;1107;48.654;9.250;2024-03-23T06:41:51;9.50;99.90
2202;DHT22;1107;48.654;9.250;2024-03-23T06:44:17;9.50;99.90
2202;DHT22;1107;48.654;9.250;2024-03-23T06:46:44;9.50;99.90
2202;DHT22;1107;48.654;9.250;2024-03-23T06:49:10;9.60;99.90
2202;DHT22;1107;48.654;9.250;2024-03-23T06:51:36;9.70;99.90
2202;DHT22;1107;48.654;9.250;2024-03-23T06:54:03;9.70;99.90
2202;DHT22;1107;48.654;9.250;2024-03-23T06:56:30;9.70;99.90
2202;DHT22;1107;48.654;9.250;2024-03-23T06:58:57;9.50;99.90
2202;DHT22;1107;48.654;9.250;2024-03-23T07:01:24;9.40;99.90
2202;DHT22;1107;48.654;9.250;2024-03-23T07:03:49;9.30;99.90
2202;DHT22;1107;48.654;9.250;2024-03-23T07:06:16;9.30;99.90
2202;DHT22;1107;48.654;9.250;2024-03-23T07:08:42;9.30;99.90
2202;DHT22;1107;48.654;9.250;2024-03-23T07:11:08;9.30;99.90
2202;DHT22;1107;48.654;9.250;2024-03-23T07:13:34;9.30;99.90
2202;DHT22;1107;48.654;9.250;2024-03-23T07:16:02;9.40;99.90
2202;DHT22;1107;48.654;9.250;2024-03-23T07:18:28;9.50;99.90
2202;DHT22;1107;48.654;9.250;2024-03-23T07:20:55;9.60;99.90
2202;DHT22;1107;48.654;9.250;2024-03-23T07:23:21;9.70;99.90
2202;DHT22;1107;48.654;9.250;2024-03-23T07:25:56;9.90;99.90
2202;DHT22;1107;48.654;9.250;2024-03-23T07:28:21;10.30;99.90
2202;DHT22;1107;48.654;9.250;2024-03-23T07:30:48;11.20;99.90
2202;DHT22;1107;48.654;9.250;2024-03-23T07:33:25;12.30;99.90
2202;DHT22;1107;48.654;9.250;2024-03-23T07:35:52;12.90;99.90
2202;DHT22;1107;48.654;9.250;2024-03-23T07:38:18;13.60;99.90
2202;DHT22;1107;48.654;9.250;2024-03-23T07:40:45;13.30;99.90
2202;DHT22;1107;48.654;9.250;2024-03-23T07:43:10;12.70;99.90
2202;DHT22;1107;48.654;9.250;2024-03-23T07:45:37;12.10;99.90
2202;DHT22;1107;48.654;9.250;2024-03-23T07:48:03;11.50;99.90
2202;DHT22;1107;48.654;9.250;2024-03-23T07:50:31;11.00;99.90
2202;DHT22;1107;48.654;9.250;2024-03-23T07:52:57;11.00;99.90
2202;DHT22;1107;48.654;9.250;2024-03-23T07:55:24;11.00;99.90
2202;DHT22;1107;48.654;9.250;2024-03-23T07:57:50;10.80;99.90
2202;DHT22;1107;48.654;9.250;2024-03-23T08:00:19;10.80;99.90
2202;DHT22;1107;48.654;9.250;2024-03-23T08:02:45;10.80;99.90
2202;DHT22;1107;48.654;9.250;2024-03-23T08:05:11;10.60;99.90
2202;DHT22;1107;48.654;9.250;2024-03-23T08:07:39;10.50;99.90
2202;DHT22;1107;48.654;9.250;2024-03-23T08:10:05;10.20;99.90
2202;DHT22;1107;48.654;9.250;2024-03-23T08:12:32;10.10;99.90
2202;DHT22;1107;48.654;9.250;2024-03-23T08:14:58;10.00;99.90
2202;DHT22;1107;48.654;9.250;2024-03-23T08:17:24;10.10;99.90
2202;DHT22;1107;48.654;9.250;2024-03-23T08:19:50;10.20;99.90
2202;DHT22;1107;48.654;9.250;2024-03-23T08:22:18;10.30;99.90
2202;DHT22;1107;48.654;9.250;2024-03-23T08:24:46;10.30;99.90
2202;DHT22;1107;48.654;9.250;2024-03-23T08:27:12;10.20;99.90
2202;DHT22;1107;48.654;9.250;2024-03-23T08:29:38;10.10;99.90
2202;DHT22;1107;48.654;9.250;2024-03-23T08:32:05;10.00;99.90
2202;DHT22;1107;48.654;9.250;2024-03-23T08:34:31;9.90;99.90
2202;DHT22;1107;48.654;9.250;2024-03-23T08:36:57;9.90;99.90
2202;DHT22;1107;48.654;9.250;2024-03-23T08:39:23;9.80;99.90
2202;DHT22;1107;48.654;9.250;2024-03-23T08:41:51;10.10;99.90
2202;DHT22;1107;48.654;9.250;2024-03-23T08:44:17;10.20;99.90
2202;DHT22;1107;48.654;9.250;2024-03-23T08:46:44;10.20;99.90
2202;DHT22;1107;48.654;9.250;2024-03-23T08:49:10;10.00;99.90
2202;DHT22;1107;48.654;9.250;2024-03-23T08:51:37;9.90;99.90
2202;DHT22;1107;48.654;9.250;2024-03-23T08:54:03;9.70;99.90
2202;DHT22;1107;48.654;9.250;2024-03-23T08:56:30;9.50;99.90
2202;DHT22;1107;48.654;9.250;2024-03-23T08:58:57;9.40;99.90
2202;DHT22;1107;48.654;9.250;2024-03-23T09:01:24;9.20;99.90
2202;DHT22;1107;48.654;9.250;2024-03-23T09:03:49;9.30;99.90
2202;DHT22;1107;48.654;9.250;2024-03-23T09:06:16;9.40;99.90
2202;DHT22;1107;48.654;9.250;2024-03-23T09:08:42;9.40;99.90
2202;DHT22;1107;48.654;9.250;2024-03-23T09:11:09;9.30;99.90
2202;DHT22;1107;48.654;9.250;2024-03-23T09:13:36;9.40;99.90
2202;DHT22;1107;48.654;9.250;2024-03-23T09:16:05;9.40;99.90
2202;DHT22;1107;48.654;9.250;2024-03-23T09:18:31;9.50;99.90
2202;DHT22;1107;48.654;9.250;2024-03-23T09:20:58;9.40;99.90
2202;DHT22;1107;48.654;9.250;2024-03-23T09:23:24;9.30;99.90
2202;DHT22;1107;48.654;9.250;2024-03-23T09:25:50;9.30;99.90
2202;DHT22;1107;48.654;9.250;2024-03-23T09:28:16;9.50;99.90
2202;DHT22;1107;48.654;9.250;2024-03-23T09:30:43;9.90;99.90
2202;DHT22;1107;48.654;9.250;2024-03-23T09:33:10;10.70;99.90
2202;DHT22;1107;48.654;9.250;2024-03-23T09:35:37;11.10;99.90
2202;DHT22;1107;48.654;9.250;2024-03-23T09:38:03;12.30;99.90
2202;DHT22;1107;48.654;9.250;2024-03-23T09:40:30;12.40;99.90
2202;DHT22;1107;48.654;9.250;2024-03-23T09:42:55;12.30;99.90
2202;DHT22;1107;48.654;9.250;2024-03-23T09:45:26;12.50;99.90
2202;DHT22;1107;48.654;9.250;2024-03-23T09:47:52;15.00;99.90
2202;DHT22;1107;48.654;9.250;2024-03-23T09:50:20;16.20;99.90
2202;DHT22;1107;48.654;9.250;2024-03-23T09:52:46;17.10;99.90
2202;DHT22;1107;48.654;9.250;2024-03-23T09:55:13;16.20;99.90
2202;DHT22;1107;48.654;9.250;2024-03-23T09:57:39;15.00;99.90
2202;DHT22;1107;48.654;9.250;2024-03-23T10:00:06;13.80;99.90
2202;DHT22;1107;48.654;9.250;2024-03-23T10:02:33;12.70;99.90
2202;DHT22;1107;48.654;9.250;2024-03-23T10:05:00;11.90;99.90
2202;DHT22;1107;48.654;9.250;2024-03-23T10:07:27;11.40;99.90
2202;DHT22;1107;48.654;9.250;2024-03-23T10:09:55;11.20;99.90
2202;DHT22;1107;48.654;9.250;2024-03-23T10:12:20;11.30;99.90
2202;DHT22;1107;48.654;9.250;2024-03-23T10:14:47;11.60;99.90
2202;DHT22;1107;48.654;9.250;2024-03-23T10:17:14;12.40;99.90
2202;DHT22;1107;48.654;9.250;2024-03-23T10:19:43;13.00;99.90
2202;DHT22;1107;48.654;9.250;2024-03-23T10:22:09;14.40;99.90
2202;DHT22;1107;48.654;9.250;2024-03-23T10:24:37;15.90;99.90
2202;DHT22;1107;48.654;9.250;2024-03-23T10:27:03;17.10;99.90
2202;DHT22;1107;48.654;9.250;2024-03-23T10:29:30;18.30;99.90
2202;DHT22;1107;48.654;9.250;2024-03-23T10:32:07;18.80;99.90
2202;DHT22;1107;48.654;9.250;2024-03-23T10:34:34;19.70;99.90
2202;DHT22;1107;48.654;9.250;2024-03-23T10:37:00;19.50;99.90
2202;DHT22;1107;48.654;9.250;2024-03-23T10:39:30;18.60;99.90
2202;DHT22;1107;48.654;9.250;2024-03-23T10:41:58;17.80;99.90
2202;DHT22;1107;48.654;9.250;2024-03-23T10:44:27;16.30;97.20
2202;DHT22;1107;48.654;9.250;2024-03-23T10:46:54;14.80;90.00
2202;DHT22;1107;48.654;9.250;2024-03-23T10:49:26;14.10;91.60
2202;DHT22;1107;48.654;9.250;2024-03-23T10:51:52;13.40;92.30
2202;DHT22;1107;48.654;9.250;2024-03-23T10:54:20;13.00;97.90
2202;DHT22;1107;48.654;9.250;2024-03-23T10:56:48;12.80;99.90
2202;DHT22;1107;48.654;9.250;2024-03-23T10:59:18;12.30;99.90
2202;DHT22;1107;48.654;9.250;2024-03-23T11:01:57;11.50;99.90
2202;DHT22;1107;48.654;9.250;2024-03-23T11:04:31;10.70;99.90
2202;DHT22;1107;48.654;9.250;2024-03-23T11:07:01;8.10;99.90
2202;DHT22;1107;48.654;9.250;2024-03-23T11:09:44;8.00;99.90
2202;DHT22;1107;48.654;9.250;2024-03-23T11:12:29;7.40;99.90
2202;DHT22;1107;48.654;9.250;2024-03-23T11:15:02;7.40;99.90
2202;DHT22;1107;48.654;9.250;2024-03-23T11:17:29;7.70;99.90
2202;DHT22;1107;48.654;9.250;2024-03-23T11:19:57;8.10;99.90
2202;DHT22;1107;48.654;9.250;2024-03-23T11:22:41;8.70;99.90
2202;DHT22;1107;48.654;9.250;2024-03-23T11:25:15;9.50;99.90
2202;DHT22;1107;48.654;9.250;2024-03-23T11:27:42;10.10;99.90
2202;DHT22;1107;48.654;9.250;2024-03-23T11:30:28;10.20;99.90
2202;DHT22;1107;48.654;9.250;2024-03-23T11:32:55;10.20;99.90
2202;DHT22;1107;48.654;9.250;2024-03-23T11:35:27;10.20;99.90
2202;DHT22;1107;48.654;9.250;2024-03-23T11:38:09;10.10;99.90
2202;DHT22;1107;48.654;9.250;2024-03-23T11:40:37;9.90;99.90
2202;DHT22;1107;48.654;9.250;2024-03-23T11:43:04;9.90;99.90
2202;DHT22;1107;48.654;9.250;2024-03-23T11:45:36;9.90;99.90
2202;DHT22;1107;48.654;9.250;2024-03-23T11:48:06;10.00;99.90
2202;DHT22;1107;48.654;9.250;2024-03-23T11:50:35;9.90;99.90
2202;DHT22;1107;48.654;9.250;2024-03-23T11:53:14;9.50;99.90
2202;DHT22;1107;48.654;9.250;2024-03-23T11:55:48;9.40;99.90
2202;DHT22;1107;48.654;9.250;2024-03-23T11:58:16;9.20;99.90
2202;DHT22;1107;48.654;9.250;2024-03-23T12:00:50;9.20;99.90
2202;DHT22;1107;48.654;9.250;2024-03-23T12:03:17;9.10;99.90
2202;DHT22;1107;48.654;9.250;2024-03-23T12:05:49;8.70;99.90
2202;DHT22;1107;48.654;9.250;2024-03-23T12:08:20;8.70;99.90
2202;DHT22;1107;48.654;9.250;2024-03-23T12:10:49;8.60;99.90
2202;DHT22;1107;48.654;9.250;2024-03-23T12:13:17;9.00;99.90
2202;DHT22;1107;48.654;9.250;2024-03-23T12:15:46;10.00;99.90
2202;DHT22;1107;48.654;9.250;2024-03-23T12:18:13;10.50;99.90
2202;DHT22;1107;48.654;9.250;2024-03-23T12:20:40;10.80;99.90
2202;DHT22;1107;48.654;9.250;2024-03-23T12:23:10;10.90;99.90
2202;DHT22;1107;48.654;9.250;2024-03-23T12:25:38;10.50;99.90
2202;DHT22;1107;48.654;9.250;2024-03-23T12:28:05;10.40;99.90
2202;DHT22;1107;48.654;9.250;2024-03-23T12:30:38;10.10;99.90
2202;DHT22;1107;48.654;9.250;2024-03-23T12:33:06;9.80;99.90
2202;DHT22;1107;48.654;9.250;2024-03-23T12:35:33;9.70;99.90
2202;DHT22;1107;48.654;9.250;2024-03-23T12:37:59;9.50;99.90
2202;DHT22;1107;48.654;9.250;2024-03-23T12:40:26;9.30;99.90
2202;DHT22;1107;48.654;9.250;2024-03-23T12:42:52;8.90;99.90
2202;DHT22;1107;48.654;9.250;2024-03-23T12:45:19;8.90;99.90
2202;DHT22;1107;48.654;9.250;2024-03-23T12:47:45;8.90;99.90
2202;DHT22;1107;48.654;9.250;2024-03-23T12:50:13;9.10;99.90
2202;DHT22;1107;48.654;9.250;2024-03-23T12:52:39;9.60;99.90
2202;DHT22;1107;48.654;9.250;2024-03-23T12:55:07;9.80;99.90
2202;DHT22;1107;48.654;9.250;2024-03-23T12:57:33;9.60;99.90
2202;DHT22;1107;48.654;9.250;2024-03-23T13:00:00;9.20;99.90
2202;DHT22;1107;48.654;9.250;2024-03-23T13:02:27;9.10;99.90
2202;DHT22;1107;48.654;9.250;2024-03-23T13:04:54;8.90;99.90
2202;DHT22;1107;48.654;9.250;2024-03-23T13:07:22;8.90;99.90
2202;DHT22;1107;48.654;9.250;2024-03-23T13:09:50;8.20;99.90
2202;DHT22;1107;48.654;9.250;2024-03-23T13:12:16;8.30;99.90
2202;DHT22;1107;48.654;9.250;2024-03-23T13:14:45;8.40;99.90
2202;DHT22;1107;48.654;9.250;2024-03-23T13:17:11;8.40;99.90
2202;DHT22;1107;48.654;9.250;2024-03-23T13:19:38;8.50;99.90
2202;DHT22;1107;48.654;9.250;2024-03-23T13:22:04;8.50;99.90
2202;DHT22;1107;48.654;9.250;2024-03-23T13:24:32;8.60;99.90
2202;DHT22;1107;48.654;9.250;2024-03-23T13:26:59;8.30;99.90
2202;DHT22;1107;48.654;9.250;2024-03-23T13:29:26;8.30;99.90
2202;DHT22;1107;48.654;9.250;2024-03-23T13:31:52;8.30;99.90
2202;DHT22;1107;48.654;9.250;2024-03-23T13:34:19;8.20;99.90
2202;DHT22;1107;48.654;9.250;2024-03-23T13:36:45;8.10;99.90
2202;DHT22;1107;48.654;9.250;2024-03-23T13:39:12;9.20;99.90
2202;DHT22;1107;48.654;9.250;2024-03-23T13:41:43;12.60;99.90
2202;DHT22;1107;48.654;9.250;2024-03-23T13:44:10;11.80;99.90
2202;DHT22;1107;48.654;9.250;2024-03-23T13:46:36;13.00;99.90
2202;DHT22;1107;48.654;9.250;2024-03-23T13:49:03;14.30;99.90
2202;DHT22;1107;48.654;9.250;2024-03-23T13:51:29;14.30;99.90
2202;DHT22;1107;48.654;9.250;2024-03-23T13:53:56;14.10;99.20
2202;DHT22;1107;48.654;9.250;2024-03-23T13:56:22;14.60;99.40
2202;DHT22;1107;48.654;9.250;2024-03-23T13:58:50;14.80;98.20
2202;DHT22;1107;48.654;9.250;2024-03-23T14:01:16;15.40;98.60
2202;DHT22;1107;48.654;9.250;2024-03-23T14:03:43;15.10;97.30
2202;DHT22;1107;48.654;9.250;2024-03-23T14:06:09;15.70;96.60
2202;DHT22;1107;48.654;9.250;2024-03-23T14:08:36;15.00;95.80
2202;DHT22;1107;48.654;9.250;2024-03-23T14:11:04;14.50;95.40
2202;DHT22;1107;48.654;9.250;2024-03-23T14:13:31;15.20;96.70
2202;DHT22;1107;48.654;9.250;2024-03-23T14:15:58;14.20;96.50
2202;DHT22;1107;48.654;9.250;2024-03-23T14:18:25;13.60;97.90
2202;DHT22;1107;48.654;9.250;2024-03-23T14:20:51;12.80;99.50
2202;DHT22;1107;48.654;9.250;2024-03-23T14:23:18;10.60;99.90
2202;DHT22;1107;48.654;9.250;2024-03-23T14:25:44;9.70;99.90
2202;DHT22;1107;48.654;9.250;2024-03-23T14:28:11;9.30;99.90
2202;DHT22;1107;48.654;9.250;2024-03-23T14:30:40;8.50;99.90
2202;DHT22;1107;48.654;9.250;2024-03-23T14:33:09;8.60;99.90
2202;DHT22;1107;48.654;9.250;2024-03-23T14:35:35;10.00;99.90
2202;DHT22;1107;48.654;9.250;2024-03-23T14:38:01;11.90;99.90
2202;DHT22;1107;48.654;9.250;2024-03-23T14:40:27;12.70;99.90
2202;DHT22;1107;48.654;9.250;2024-03-23T14:42:54;12.70;99.90
2202;DHT22;1107;48.654;9.250;2024-03-23T14:45:20;12.40;99.90
2202;DHT22;1107;48.654;9.250;2024-03-23T14:47:47;12.80;99.90
2202;DHT22;1107;48.654;9.250;2024-03-23T14:50:14;12.40;99.90
2202;DHT22;1107;48.654;9.250;2024-03-23T14:52:42;12.60;99.90
2202;DHT22;1107;48.654;9.250;2024-03-23T14:55:07;13.40;99.90
2202;DHT22;1107;48.654;9.250;2024-03-23T14:57:35;13.10;99.90
2202;DHT22;1107;48.654;9.250;2024-03-23T15:00:01;12.10;99.90
2202;DHT22;1107;48.654;9.250;2024-03-23T15:02:30;11.40;99.90
2202;DHT22;1107;48.654;9.250;2024-03-23T15:04:57;10.60;99.90
2202;DHT22;1107;48.654;9.250;2024-03-23T15:07:25;9.80;99.90
2202;DHT22;1107;48.654;9.250;2024-03-23T15:09:51;9.30;99.90
2202;DHT22;1107;48.654;9.250;2024-03-23T15:12:19;8.80;99.90
2202;DHT22;1107;48.654;9.250;2024-03-23T15:14:45;8.40;99.90
2202;DHT22;1107;48.654;9.250;2024-03-23T15:17:12;8.50;99.90
2202;DHT22;1107;48.654;9.250;2024-03-23T15:19:38;8.60;99.90
2202;DHT22;1107;48.654;9.250;2024-03-23T15:22:05;9.00;99.90
2202;DHT22;1107;48.654;9.250;2024-03-23T15:24:32;10.10;99.90
2202;DHT22;1107;48.654;9.250;2024-03-23T15:27:00;11.10;99.90
2202;DHT22;1107;48.654;9.250;2024-03-23T15:29:26;11.50;99.90
2202;DHT22;1107;48.654;9.250;2024-03-23T15:31:52;11.20;99.90
2202;DHT22;1107;48.654;9.250;2024-03-23T15:34:18;11.00;99.90
2202;DHT22;1107;48.654;9.250;2024-03-23T15:36:47;10.90;99.90
2202;DHT22;1107;48.654;9.250;2024-03-23T15:39:13;10.60;99.90
2202;DHT22;1107;48.654;9.250;2024-03-23T15:41:41;10.20;99.90
2202;DHT22;1107;48.654;9.250;2024-03-23T15:44:08;9.90;99.90
2202;DHT22;1107;48.654;9.250;2024-03-23T15:46:35;9.30;99.90
2202;DHT22;1107;48.654;9.250;2024-03-23T15:49:01;9.20;99.90
2202;DHT22;1107;48.654;9.250;2024-03-23T15:51:28;9.10;99.90
2202;DHT22;1107;48.654;9.250;2024-03-23T15:53:58;9.00;99.90
2202;DHT22;1107;48.654;9.250;2024-03-23T15:56:25;8.70;99.90
2202;DHT22;1107;48.654;9.250;2024-03-23T15:58:52;8.60;99.90
2202;DHT22;1107;48.654;9.250;2024-03-23T16:01:18;8.50;99.90
2202;DHT22;1107;48.654;9.250;2024-03-23T16:03:44;8.30;99.90
2202;DHT22;1107;48.654;9.250;2024-03-23T16:06:11;8.10;99.90
2202;DHT22;1107;48.654;9.250;2024-03-23T16:08:37;7.80;99.90
2202;DHT22;1107;48.654;9.250;2024-03-23T16:11:04;7.60;99.90
2202;DHT22;1107;48.654;9.250;2024-03-23T16:13:30;7.50;99.90
2202;DHT22;1107;48.654;9.250;2024-03-23T16:15:58;7.40;99.90
2202;DHT22;1107;48.654;9.250;2024-03-23T16:18:24;7.30;99.90
2202;DHT22;1107;48.654;9.250;2024-03-23T16:20:51;7.80;99.90
2202;DHT22;1107;48.654;9.250;2024-03-23T16:23:17;8.10;99.90
2202;DHT22;1107;48.654;9.250;2024-03-23T16:25:46;8.00;99.90
2202;DHT22;1107;48.654;9.250;2024-03-23T16:28:14;7.70;99.90
2202;DHT22;1107;48.654;9.250;2024-03-23T16:30:41;7.60;99.90
2202;DHT22;1107;48.654;9.250;2024-03-23T16:33:08;7.50;99.90
2202;DHT22;1107;48.654;9.250;2024-03-23T16:35:35;7.40;99.90
2202;DHT22;1107;48.654;9.250;2024-03-23T16:38:01;7.20;99.90
2202;DHT22;1107;48.654;9.250;2024-03-23T16:40:28;7.00;99.90
2202;DHT22;1107;48.654;9.250;2024-03-23T16:42:54;6.90;99.90
2202;DHT22;1107;48.654;9.250;2024-03-23T16:45:20;6.80;99.90
2202;DHT22;1107;48.654;9.250;2024-03-23T16:47:46;6.90;99.90
2202;DHT22;1107;48.654;9.250;2024-03-23T16:50:14;7.00;99.90
2202;DHT22;1107;48.654;9.250;2024-03-23T16:52:40;7.10;99.90
2202;DHT22;1107;48.654;9.250;2024-03-23T16:55:07;7.40;99.90
2202;DHT22;1107;48.654;9.250;2024-03-23T16:57:34;7.30;99.90
2202;DHT22;1107;48.654;9.250;2024-03-23T17:00:01;7.30;99.90